createdAt,value
2022-08-23T00:02:28.667Z,47.81
2022-08-23T00:05:08.889Z,43.75
2022-08-23T00:07:41.506Z,44.76
2022-08-23T00:10:14.121Z,43.06
2022-08-23T00:12:45.808Z,46.00
2022-08-23T00:15:18.611Z,43.96
2022-08-23T00:17:49.033Z,40.57
2022-08-23T00:20:21.102Z,43.61
2022-08-23T00:22:50.351Z,45.20
2022-08-23T00:25:19.609Z,46.92
2022-08-23T00:27:48.842Z,42.44
2022-08-23T00:30:18.739Z,43.50
2022-08-23T00:32:48.128Z,42.27
2022-08-23T00:35:26.507Z,41.88
2022-08-23T00:38:33.355Z,40.98
2022-08-23T00:40:52.021Z,39.70
2022-08-23T00:43:49.820Z,39.62
2022-08-23T00:47:08.168Z,38.99
2022-08-23T00:49:39.982Z,38.89
2022-08-23T00:52:31.494Z,42.05
2022-08-23T00:55:01.414Z,40.96
2022-08-23T00:57:31.788Z,41.50
2022-08-23T01:00:01.692Z,39.92
2022-08-23T01:02:30.807Z,40.46
2022-08-23T01:05:01.241Z,41.43
2022-08-23T01:07:41.858Z,42.06
2022-08-23T01:10:21.217Z,44.61
2022-08-23T01:13:08.821Z,44.05
2022-08-23T01:15:49.968Z,45.10
2022-08-23T01:18:24.356Z,45.10
2022-08-23T01:21:00.650Z,44.03
2022-08-23T01:23:38.563Z,44.46
2022-08-23T01:26:08.120Z,45.49
2022-08-23T01:28:45.691Z,45.58
2022-08-23T01:31:17.338Z,46.98
2022-08-23T01:34:05.820Z,47.57
2022-08-23T01:36:36.635Z,52.50
2022-08-23T01:39:08.825Z,55.27
2022-08-23T01:41:41.223Z,58.07
2022-08-23T01:44:10.854Z,57.44
2022-08-23T01:46:40.046Z,61.37
2022-08-23T01:49:09.421Z,61.13
2022-08-23T01:51:38.955Z,61.12
2022-08-23T01:54:09.081Z,62.73
2022-08-23T01:56:39.571Z,60.30
2022-08-23T01:59:13.038Z,57.71
2022-08-23T02:01:48.659Z,59.87
2022-08-23T02:04:18.875Z,63.61
2022-08-23T02:06:48.557Z,58.63
2022-08-23T02:09:25.543Z,57.18
2022-08-23T02:11:59.700Z,57.13
2022-08-23T02:14:31.530Z,61.66
2022-08-23T02:17:04.818Z,61.73
2022-08-23T02:19:35.741Z,65.21
2022-08-23T02:22:07.557Z,64.67
2022-08-23T02:24:42.327Z,65.68
2022-08-23T02:27:12.979Z,64.23
2022-08-23T02:29:45.439Z,63.11
2022-08-23T02:32:17.232Z,63.73
2022-08-23T02:34:51.055Z,62.52
2022-08-23T02:37:36.900Z,63.63
2022-08-23T02:40:07.778Z,63.38
2022-08-23T02:42:37.198Z,61.79
2022-08-23T02:45:09.425Z,60.72
2022-08-23T02:47:46.562Z,59.17
2022-08-23T02:50:28.051Z,59.50
2022-08-23T02:52:58.982Z,60.07
2022-08-23T02:55:29.860Z,59.74
2022-08-23T02:58:00.251Z,60.20
2022-08-23T03:00:30.759Z,61.13
2022-08-23T03:02:59.863Z,60.95
2022-08-23T03:05:29.077Z,61.96
2022-08-23T03:07:58.456Z,62.30
2022-08-23T03:10:27.962Z,63.20
2022-08-23T03:13:03.817Z,63.26
2022-08-23T03:15:33.014Z,63.78
2022-08-23T03:18:02.642Z,64.81
2022-08-23T03:20:32.114Z,68.05
2022-08-23T03:23:02.451Z,69.75
2022-08-23T03:25:31.744Z,69.99
2022-08-23T03:28:09.725Z,70.08
2022-08-23T03:30:44.092Z,69.25
2022-08-23T03:33:13.991Z,69.62
2022-08-23T03:35:43.993Z,70.66
2022-08-23T03:38:15.882Z,72.48
2022-08-23T03:40:45.974Z,74.05
2022-08-23T03:43:15.656Z,75.83
2022-08-23T03:45:44.717Z,79.01
2022-08-23T03:48:14.643Z,81.77
2022-08-23T03:50:43.792Z,86.31
2022-08-23T03:53:13.860Z,92.32
2022-08-23T03:55:45.749Z,98.77
2022-08-23T03:58:18.783Z,100.00
2022-08-23T04:00:48.063Z,100.00
2022-08-23T04:03:17.490Z,99.64
2022-08-23T04:06:04.253Z,100.00
2022-08-23T04:08:34.184Z,100.00
2022-08-23T04:11:06.479Z,100.00
2022-08-23T04:13:38.110Z,100.00
2022-08-23T04:16:10.042Z,100.00
2022-08-23T04:18:39.798Z,100.00
2022-08-23T04:21:12.561Z,100.00
2022-08-23T04:23:42.093Z,100.00
2022-08-23T04:26:12.572Z,100.00
2022-08-23T04:28:44.374Z,100.00
2022-08-23T04:31:15.037Z,100.00
2022-08-23T04:33:52.234Z,100.00
2022-08-23T04:36:23.423Z,100.00
2022-08-23T04:38:54.214Z,100.00
2022-08-23T04:41:41.814Z,100.00
2022-08-23T04:44:11.886Z,100.00
2022-08-23T04:46:41.681Z,100.00
2022-08-23T04:49:12.543Z,100.00
2022-08-23T04:51:41.841Z,100.00
2022-08-23T04:54:22.800Z,100.00
2022-08-23T04:57:07.669Z,100.00
2022-08-23T04:59:38.440Z,100.00
2022-08-23T05:02:07.971Z,100.00
2022-08-23T05:04:37.306Z,100.00
2022-08-23T05:07:06.453Z,100.00
2022-08-23T05:09:35.581Z,100.00
2022-08-23T05:12:07.429Z,100.00
2022-08-23T05:14:37.517Z,100.00
2022-08-23T05:17:07.170Z,100.00
2022-08-23T05:19:39.406Z,100.00
2022-08-23T05:22:13.976Z,100.00
2022-08-23T05:25:06.357Z,100.00
2022-08-23T05:27:36.629Z,100.00
2022-08-23T05:30:07.969Z,100.00
2022-08-23T05:32:44.462Z,100.00
2022-08-23T05:35:14.863Z,100.00
2022-08-23T05:37:46.596Z,100.00
2022-08-23T05:40:17.400Z,100.00
2022-08-23T05:43:00.423Z,100.00
2022-08-23T05:45:30.556Z,100.00
2022-08-23T05:47:59.636Z,100.00
2022-08-23T05:50:45.406Z,100.00
2022-08-23T05:53:14.464Z,100.00
2022-08-23T05:55:45.174Z,100.00
2022-08-23T05:58:22.353Z,100.00
2022-08-23T06:00:52.205Z,100.00
2022-08-23T06:03:21.323Z,100.00
2022-08-23T06:06:02.740Z,100.00
2022-08-23T06:08:32.042Z,100.00
2022-08-23T06:11:07.569Z,100.00
2022-08-23T06:13:44.682Z,100.00
2022-08-23T06:16:16.517Z,100.00
2022-08-23T06:18:47.854Z,100.00
2022-08-23T06:21:40.535Z,100.00
2022-08-23T06:24:10.037Z,100.00
2022-08-23T06:26:46.785Z,100.00
2022-08-23T06:29:19.422Z,100.00
2022-08-23T06:31:53.620Z,100.00
2022-08-23T06:34:35.320Z,100.00
2022-08-23T06:37:13.906Z,100.00
2022-08-23T06:40:01.361Z,100.00
2022-08-23T06:42:46.206Z,100.00
2022-08-23T06:45:20.372Z,100.00
2022-08-23T06:48:03.324Z,100.00
2022-08-23T06:50:33.898Z,100.00
2022-08-23T06:53:21.110Z,100.00
2022-08-23T06:56:11.770Z,100.00
2022-08-23T06:59:00.027Z,100.00
2022-08-23T07:01:55.395Z,100.00
2022-08-23T07:04:32.875Z,100.00
2022-08-23T07:07:20.189Z,100.00
2022-08-23T07:09:49.519Z,100.00
2022-08-23T07:12:21.133Z,100.00
2022-08-23T07:14:50.583Z,100.00
2022-08-23T07:17:19.964Z,100.00
2022-08-23T07:19:50.072Z,100.00
2022-08-23T07:22:20.949Z,100.00
2022-08-23T07:24:50.507Z,100.00
2022-08-23T07:27:22.290Z,100.00
2022-08-23T07:30:05.760Z,100.00
2022-08-23T07:32:36.496Z,100.00
2022-08-23T07:35:40.344Z,100.00
2022-08-23T07:38:10.024Z,100.00
2022-08-23T07:40:40.756Z,100.00
2022-08-23T07:43:11.284Z,100.00
2022-08-23T07:45:44.153Z,100.00
2022-08-23T07:48:14.354Z,100.00
2022-08-23T07:51:15.278Z,100.00
2022-08-23T07:53:46.877Z,100.00
2022-08-23T07:56:20.975Z,100.00
2022-08-23T07:59:16.228Z,100.00
2022-08-23T08:02:10.246Z,100.00
2022-08-23T08:04:39.582Z,100.00
2022-08-23T08:07:19.404Z,100.00
2022-08-23T08:09:56.120Z,100.00
2022-08-23T08:12:27.736Z,100.00
2022-08-23T08:15:00.485Z,100.00
2022-08-23T08:17:38.248Z,100.00
2022-08-23T08:20:21.236Z,100.00
2022-08-23T08:22:58.310Z,100.00
2022-08-23T08:25:40.091Z,100.00
2022-08-23T08:28:15.763Z,100.00
2022-08-23T08:30:45.784Z,100.00
2022-08-23T08:33:16.780Z,100.00
2022-08-23T08:35:57.621Z,100.00
2022-08-23T08:38:30.748Z,100.00
2022-08-23T08:41:23.322Z,100.00
2022-08-23T08:44:16.287Z,100.00
2022-08-23T08:46:57.896Z,100.00
2022-08-23T08:50:02.147Z,100.00
2022-08-23T08:52:39.330Z,100.00
2022-08-23T08:55:26.273Z,100.00
2022-08-23T08:57:57.345Z,100.00
2022-08-23T09:00:34.889Z,100.00
2022-08-23T09:03:15.241Z,100.00
2022-08-23T09:05:57.339Z,100.00
2022-08-23T09:08:41.290Z,100.00
2022-08-23T09:11:40.329Z,100.00
2022-08-23T09:14:17.753Z,100.00
2022-08-23T09:16:53.308Z,100.00
2022-08-23T09:19:25.342Z,100.00
2022-08-23T09:22:11.561Z,100.00
2022-08-23T09:24:41.857Z,100.00
2022-08-23T09:27:24.323Z,100.00
2022-08-23T09:29:58.019Z,100.00
2022-08-23T09:32:39.638Z,100.00
2022-08-23T09:35:26.619Z,100.00
2022-08-23T09:38:16.419Z,100.00
2022-08-23T09:40:50.533Z,100.00
2022-08-23T09:43:27.049Z,100.00
2022-08-23T09:46:01.761Z,100.00
2022-08-23T09:48:39.849Z,100.00
2022-08-23T09:51:35.151Z,100.00
2022-08-23T09:54:15.877Z,100.00
2022-08-23T09:56:54.243Z,100.00
2022-08-23T09:59:53.123Z,100.00
2022-08-23T10:02:33.825Z,100.00
2022-08-23T10:05:40.294Z,100.00
2022-08-23T10:08:24.921Z,100.00
2022-08-23T10:10:59.715Z,100.00
2022-08-23T10:13:34.082Z,100.00
2022-08-23T10:16:35.162Z,100.00
2022-08-23T10:19:18.881Z,100.00
2022-08-23T10:22:20.385Z,100.00
2022-08-23T10:25:13.843Z,100.00
2022-08-23T10:28:06.495Z,100.00
2022-08-23T10:30:54.489Z,100.00
2022-08-23T10:33:45.196Z,100.00
2022-08-23T10:36:17.696Z,100.00
2022-08-23T10:38:52.614Z,100.00
2022-08-23T10:41:42.820Z,100.00
2022-08-23T10:44:35.262Z,100.00
2022-08-23T10:47:29.601Z,100.00
2022-08-23T10:50:01.613Z,100.00
2022-08-23T10:52:41.686Z,100.00
2022-08-23T10:55:36.933Z,100.00
2022-08-23T10:58:14.167Z,100.00
2022-08-23T11:00:44.638Z,100.00
2022-08-23T11:03:31.908Z,100.00
2022-08-23T11:06:26.407Z,100.00
2022-08-23T11:09:05.993Z,100.00
2022-08-23T11:12:02.494Z,100.00
2022-08-23T11:14:42.980Z,100.00
2022-08-23T11:17:38.454Z,100.00
2022-08-23T11:20:11.858Z,100.00
2022-08-23T11:22:59.554Z,100.00
2022-08-23T11:25:28.589Z,100.00
2022-08-23T11:28:30.509Z,100.00
2022-08-23T11:31:20.120Z,100.00
2022-08-23T11:34:10.664Z,100.00
2022-08-23T11:36:40.513Z,100.00
2022-08-23T11:39:12.958Z,100.00
2022-08-23T11:41:57.768Z,100.00
2022-08-23T11:44:41.499Z,100.00
2022-08-23T11:47:13.940Z,100.00
2022-08-23T11:50:18.720Z,100.00
2022-08-23T11:52:53.537Z,100.00
2022-08-23T11:55:47.110Z,100.00
2022-08-23T11:58:31.655Z,100.00
2022-08-23T12:01:13.617Z,100.00
2022-08-23T12:04:11.179Z,100.00
2022-08-23T12:06:58.957Z,100.00
2022-08-23T12:09:27.910Z,100.00
2022-08-23T12:11:56.972Z,100.00
2022-08-23T12:14:45.028Z,100.00
2022-08-23T12:17:13.995Z,100.00
2022-08-23T12:19:49.380Z,100.00
2022-08-23T12:22:24.380Z,100.00
2022-08-23T12:25:00.588Z,100.00
2022-08-23T12:27:56.559Z,100.00
2022-08-23T12:30:41.013Z,100.00
2022-08-23T12:33:59.108Z,100.00
2022-08-23T12:36:46.189Z,100.00
2022-08-23T12:39:20.598Z,100.00
2022-08-23T12:41:49.645Z,100.00
2022-08-23T12:44:22.157Z,100.00
2022-08-23T12:46:52.475Z,100.00
2022-08-23T12:49:33.813Z,100.00
2022-08-23T12:52:09.025Z,100.00
2022-08-23T12:54:47.299Z,100.00
2022-08-23T12:57:21.505Z,100.00
2022-08-23T13:00:17.170Z,100.00
2022-08-23T13:02:59.646Z,100.00
2022-08-23T13:05:37.690Z,100.00
2022-08-23T13:08:10.613Z,100.00
2022-08-23T13:10:42.858Z,100.00
2022-08-23T13:13:15.147Z,100.00
2022-08-23T13:15:58.136Z,100.00
2022-08-23T13:18:34.910Z,100.00
2022-08-23T13:21:24.939Z,100.00
2022-08-23T13:23:57.399Z,100.00
2022-08-23T13:26:41.758Z,100.00
2022-08-23T13:29:16.871Z,100.00
2022-08-23T13:31:56.383Z,100.00
2022-08-23T13:34:48.561Z,100.00
2022-08-23T13:37:26.558Z,100.00
2022-08-23T13:39:59.758Z,100.00
2022-08-23T13:42:53.627Z,100.00
2022-08-23T13:45:30.293Z,100.00
2022-08-23T13:48:24.510Z,100.00
2022-08-23T13:50:54.259Z,100.00
2022-08-23T13:53:23.360Z,100.00
2022-08-23T13:56:00.212Z,100.00
2022-08-23T13:58:35.136Z,100.00
2022-08-23T14:01:06.636Z,100.00
2022-08-23T14:03:35.758Z,100.00
2022-08-23T14:06:04.794Z,100.00
2022-08-23T14:08:33.850Z,100.00
2022-08-23T14:11:03.880Z,100.00
2022-08-23T14:13:34.141Z,100.00
2022-08-23T14:21:46.051Z,100.00
2022-08-23T14:24:15.341Z,100.00
2022-08-23T14:26:50.189Z,100.00
2022-08-23T14:29:23.277Z,100.00
2022-08-23T14:31:53.451Z,100.00
2022-08-23T14:34:23.180Z,100.00
2022-08-23T14:39:43.483Z,100.00
2022-08-23T14:42:15.388Z,100.00
2022-08-23T14:44:44.490Z,100.00
2022-08-23T14:47:13.549Z,100.00
2022-08-23T14:49:42.676Z,100.00
2022-08-23T14:52:14.313Z,100.00
2022-08-23T14:54:43.764Z,100.00
2022-08-23T14:57:13.020Z,100.00
2022-08-23T14:59:42.144Z,100.00
2022-08-23T15:02:14.514Z,100.00
2022-08-23T15:04:43.613Z,100.00
2022-08-23T15:07:19.936Z,100.00
2022-08-23T15:09:49.593Z,100.00
2022-08-23T15:15:14.231Z,100.00
2022-08-23T15:17:59.603Z,100.00
2022-08-23T15:20:35.474Z,100.00
2022-08-23T15:23:07.174Z,100.00
2022-08-23T15:25:40.364Z,100.00
2022-08-23T15:28:13.177Z,100.00
2022-08-23T15:30:44.169Z,100.00
2022-08-23T15:33:13.663Z,100.00
2022-08-23T15:35:46.453Z,100.00
2022-08-23T15:38:17.975Z,100.00
2022-08-23T15:40:47.532Z,100.00
2022-08-23T15:43:16.777Z,100.00
2022-08-23T15:45:46.034Z,100.00
2022-08-23T15:48:25.631Z,100.00
2022-08-23T15:50:55.164Z,100.00
2022-08-23T15:53:24.399Z,100.00
2022-08-23T15:55:54.294Z,100.00
2022-08-23T15:58:26.320Z,100.00
2022-08-23T16:00:57.090Z,100.00
2022-08-23T16:03:26.487Z,100.00
2022-08-23T16:05:55.650Z,100.00
2022-08-23T16:08:29.085Z,100.00
2022-08-23T16:10:59.311Z,100.00
2022-08-23T16:13:31.818Z,100.00
2022-08-23T16:16:04.713Z,100.00
2022-08-23T16:18:33.868Z,100.00
2022-08-23T16:21:05.480Z,100.00
2022-08-23T16:23:34.559Z,100.00
2022-08-23T16:26:03.725Z,100.00
2022-08-23T16:28:33.355Z,100.00
2022-08-23T16:31:03.432Z,100.00
2022-08-23T16:33:32.564Z,100.00
2022-08-23T16:36:01.709Z,100.00
2022-08-23T16:38:30.764Z,100.00
2022-08-23T16:41:00.050Z,100.00
2022-08-23T16:43:29.331Z,100.00
2022-08-23T16:45:58.398Z,100.00
2022-08-23T16:48:27.584Z,100.00
2022-08-23T16:50:56.593Z,100.00
2022-08-23T16:53:27.709Z,100.00
2022-08-23T16:55:56.932Z,100.00
2022-08-23T16:58:26.869Z,100.00
2022-08-23T17:00:56.020Z,100.00
2022-08-23T17:03:27.245Z,100.00
2022-08-23T17:05:56.776Z,100.00
2022-08-23T17:08:25.890Z,100.00
2022-08-23T17:10:54.938Z,100.00
2022-08-23T17:13:24.007Z,100.00
2022-08-23T17:15:53.227Z,100.00
2022-08-23T17:18:22.213Z,100.00
2022-08-23T17:20:51.419Z,100.00
2022-08-23T17:23:20.448Z,100.00
2022-08-23T17:25:49.736Z,100.00
2022-08-23T17:28:19.371Z,100.00
2022-08-23T17:30:48.944Z,100.00
2022-08-23T17:33:18.127Z,100.00
2022-08-23T17:35:47.246Z,100.00
2022-08-23T17:38:16.676Z,100.00
2022-08-23T17:40:45.685Z,100.00
2022-08-23T17:43:14.800Z,100.00
2022-08-23T17:45:47.355Z,100.00
2022-08-23T17:48:18.442Z,100.00
2022-08-23T17:50:48.983Z,100.00
2022-08-23T17:53:19.249Z,100.00
2022-08-23T17:55:48.414Z,100.00
2022-08-23T17:58:17.593Z,100.00
2022-08-23T18:00:47.805Z,100.00
2022-08-23T18:03:16.841Z,100.00
2022-08-23T18:05:47.181Z,100.00
2022-08-23T18:08:16.358Z,100.00
2022-08-23T18:10:45.316Z,100.00
2022-08-23T18:13:14.531Z,100.00
2022-08-23T18:15:43.778Z,100.00
2022-08-23T18:18:13.322Z,100.00
2022-08-23T18:20:45.362Z,100.00
2022-08-23T18:23:16.596Z,100.00
2022-08-23T18:25:46.708Z,100.00
2022-08-23T18:28:18.868Z,100.00
2022-08-23T18:30:55.908Z,100.00
2022-08-23T18:33:32.322Z,100.00
2022-08-23T18:36:16.888Z,100.00
2022-08-23T18:38:45.997Z,100.00
2022-08-23T18:41:15.835Z,100.00
2022-08-23T18:43:45.302Z,100.00
2022-08-23T18:46:14.292Z,100.00
2022-08-23T18:48:45.734Z,100.00
2022-08-23T18:51:18.165Z,100.00
2022-08-23T18:53:48.251Z,100.00
2022-08-23T18:56:17.377Z,100.00
2022-08-23T18:58:46.695Z,100.00
2022-08-23T19:01:25.064Z,100.00
2022-08-23T19:03:55.496Z,100.00
2022-08-23T19:06:25.252Z,100.00
2022-08-23T19:08:54.778Z,100.00
2022-08-23T19:11:25.203Z,100.00
2022-08-23T19:13:54.683Z,100.00
2022-08-23T19:16:24.953Z,100.00
2022-08-23T19:18:55.652Z,100.00
2022-08-23T19:21:26.698Z,100.00
2022-08-23T19:23:58.131Z,100.00
2022-08-23T19:26:35.076Z,100.00
2022-08-23T19:29:08.413Z,100.00
2022-08-23T19:31:43.505Z,100.00
2022-08-23T19:34:13.424Z,100.00
2022-08-23T19:36:46.938Z,100.00
2022-08-23T19:39:19.214Z,100.00
2022-08-23T19:41:49.482Z,100.00
2022-08-23T19:44:18.600Z,100.00
2022-08-23T19:46:47.650Z,100.00
2022-08-23T19:49:17.007Z,100.00
2022-08-23T19:51:46.156Z,100.00
2022-08-23T19:54:15.240Z,100.00
2022-08-23T19:56:49.457Z,100.00
2022-08-23T19:59:35.614Z,100.00
2022-08-23T20:02:04.850Z,100.00
2022-08-23T20:04:35.129Z,100.00
2022-08-23T20:07:05.706Z,100.00
2022-08-23T20:09:35.499Z,100.00
2022-08-23T20:12:05.208Z,100.00
2022-08-23T20:14:35.369Z,100.00
2022-08-23T20:17:08.564Z,100.00
2022-08-23T20:19:38.025Z,100.00
2022-08-23T20:22:25.645Z,100.00
2022-08-23T20:24:54.742Z,100.00
2022-08-23T20:27:29.343Z,100.00
2022-08-23T20:30:06.583Z,100.00
2022-08-23T20:32:36.564Z,100.00
2022-08-23T20:35:09.047Z,100.00
2022-08-23T20:37:39.282Z,100.00
2022-08-23T20:40:11.301Z,100.00
2022-08-23T20:42:40.513Z,100.00
2022-08-23T20:45:10.268Z,98.92
2022-08-23T20:47:41.226Z,95.77
2022-08-23T20:50:10.960Z,95.99
2022-08-23T20:52:40.233Z,94.77
2022-08-23T20:55:10.929Z,84.54
2022-08-23T20:57:40.618Z,87.98
2022-08-23T21:00:10.359Z,86.56
2022-08-23T21:02:39.767Z,88.16
2022-08-23T21:05:08.985Z,88.41
2022-08-23T21:07:39.208Z,90.12
2022-08-23T21:10:08.540Z,97.33
2022-08-23T21:12:37.675Z,96.14
2022-08-23T21:15:10.754Z,92.24
2022-08-23T21:17:40.426Z,96.19
2022-08-23T21:20:09.819Z,91.43
2022-08-23T21:22:38.876Z,94.66
2022-08-23T21:25:08.402Z,96.66
2022-08-23T21:27:37.598Z,91.20
2022-08-23T21:30:07.800Z,91.08
2022-08-23T21:32:37.121Z,81.41
2022-08-23T21:35:06.877Z,79.18
2022-08-23T21:37:36.196Z,85.44
2022-08-23T21:40:05.943Z,82.53
2022-08-23T21:42:35.065Z,83.92
2022-08-23T21:45:04.886Z,84.81
2022-08-23T21:47:34.260Z,78.39
2022-08-23T21:50:03.291Z,79.94
2022-08-23T21:52:32.417Z,74.30
2022-08-23T21:55:01.416Z,75.51
2022-08-23T21:57:30.429Z,76.56
2022-08-23T21:59:59.422Z,77.82
2022-08-23T22:02:29.232Z,78.74
2022-08-23T22:04:58.485Z,77.11
2022-08-23T22:07:27.514Z,75.30
2022-08-23T22:09:56.622Z,74.62
2022-08-23T22:12:25.649Z,81.69
2022-08-23T22:14:54.860Z,77.78
2022-08-23T22:17:23.911Z,76.63
2022-08-23T22:19:52.995Z,77.56
2022-08-23T22:22:22.277Z,75.20
2022-08-23T22:24:52.023Z,77.22
2022-08-23T22:27:22.076Z,75.79
2022-08-23T22:29:51.430Z,81.82
2022-08-23T22:32:22.041Z,81.73
2022-08-23T22:34:51.134Z,80.05
2022-08-23T22:37:20.560Z,83.05
2022-08-23T22:39:49.718Z,79.53
2022-08-23T22:42:19.008Z,89.34
2022-08-23T22:44:48.192Z,90.64
2022-08-23T22:47:17.362Z,97.17
2022-08-23T22:49:46.475Z,89.06
2022-08-23T22:52:15.504Z,91.50
2022-08-23T22:54:44.887Z,90.87
2022-08-23T22:57:14.014Z,93.19
2022-08-23T22:59:43.318Z,82.26
2022-08-23T23:02:13.695Z,84.40
2022-08-23T23:04:45.104Z,84.05
2022-08-23T23:07:15.260Z,74.24
2022-08-23T23:09:44.212Z,75.53
2022-08-23T23:12:13.717Z,68.45
2022-08-23T23:14:42.857Z,68.24
2022-08-23T23:17:11.879Z,68.68
2022-08-23T23:19:59.518Z,68.77
2022-08-23T23:22:28.578Z,69.69
2022-08-23T23:24:57.925Z,71.35
2022-08-23T23:27:27.045Z,69.16
2022-08-23T23:29:56.100Z,66.39
2022-08-23T23:32:25.131Z,68.35
2022-08-23T23:34:54.363Z,67.34
2022-08-23T23:37:26.764Z,69.64
2022-08-23T23:39:55.898Z,63.51
2022-08-23T23:42:24.970Z,64.56
2022-08-23T23:44:53.968Z,70.36
2022-08-23T23:47:23.095Z,69.07
2022-08-23T23:49:52.578Z,67.95
2022-08-23T23:52:21.631Z,69.65
2022-08-23T23:54:50.785Z,72.73
2022-08-23T23:57:20.177Z,70.09
2022-08-23T23:59:49.265Z,72.48
